Flight Track Log - Related Links

Times and Time Zones

All times are in EDT time to prevent confusion due to time zone crossing. See the RPA3196 flight status page for this flight to view local times or setup timezone preferences in your user account.

Time Position Orientation Groundspeed Altitude Reporting Facility
EDT Latitude Longitude Course Direction KTS MPH feet Rate Location/Type
Wed 09:50:06 AM 39.8833 -75.2167 307° West 143 165 1,000  Level Philadelphia TRACON
Wed 09:51:01 AM 39.9000 -75.1667 67° East 209 241 2,500 2,053 Climbing Philadelphia TRACON
Wed 09:52:00 AM 40.1303 -75.4803 323° Northwest  Level FlightAware Approximate
Wed 09:52:00 AM 39.9167 -75.0833 75° East 282 325 4,900  Level Philadelphia TRACON
Wed 09:53:00 AM 40.2209 -75.5563 311° West  Level FlightAware Approximate
Wed 09:53:00 AM 40.0000 -75.0833 360° North 296 341 8,500  Level Philadelphia TRACON
Wed 09:53:55 AM 40.0500 -75.1500 314° West 324 373 10,000 992 Climbing Philadelphia TRACON
Wed 09:54:00 AM 40.2938 -75.6656 311° West  Level FlightAware Approximate
Wed 09:55:00 AM 40.3622 -75.7797 307° West  Level FlightAware Approximate
Wed 09:55:13 AM 40.1167 -75.2833 303° West 328 377 10,700  Level Philadelphia TRACON
Wed 09:56:05 AM 40.1464 -75.3817 292° West 407 468 12,500 1,286 Climbing New York Center
Wed 09:57:05 AM 40.1881 -75.4850 298° West 368 423 13,100 595 Climbing New York Center
Wed 09:58:06 AM 40.2503 -75.6008 305° West 362 417 13,700 1,289 Climbing New York Center
Wed 09:59:06 AM 40.3131 -75.6950 311° West 370 426 15,700 1,636 Climbing New York Center
Wed 10:00:07 AM 40.3856 -75.8036 311° West 387 445 17,000 694 Climbing New York Center
Wed 10:01:07 AM 40.4486 -75.9339 302° West 397 457 17,100  Climbing New York Center
Wed 10:02:06 AM 40.4678 -76.0661 281° West 374 430 17,000 154 Descending New York Center
Wed 10:03:04 AM 40.4911 -76.1964 283° West 374 430 17,400 1,412 Climbing New York Center
Wed 10:04:05 AM 40.5100 -76.3289 281° West 369 425 19,800 2,281 Climbing New York Center
Wed 10:05:05 AM 40.5306 -76.4644 281° West 369 425 22,000 2,066 Climbing New York Center
Wed 10:06:07 AM 40.5767 -76.5858 297° West 368 423 24,000 1,950 Climbing New York Center
Wed 10:07:05 AM 40.6789 -76.6300 342° North 352 405 25,900 1,525 Climbing New York Center
Wed 10:08:05 AM 40.7908 -76.6394 356° North 364 419 27,000 1,230 Climbing New York Center
Wed 10:09:07 AM 40.8800 -76.5622 33° Northeast 342 394 28,400 1,488 Climbing New York Center
Wed 10:10:06 AM 40.9658 -76.4731 38° Northeast 355 409 30,000 1,300 Climbing New York Center
Wed 10:11:07 AM 41.0511 -76.3842 38° Northeast 373 429 31,000 504 Climbing New York Center
Wed 10:12:05 AM 41.1389 -76.2947 37° Northeast 385 443 31,000  Level New York Center
Wed 10:13:05 AM 41.2222 -76.2022 40° Northeast 390 449 31,000  Level New York Center
Wed 10:14:06 AM 41.3031 -76.1178 38° Northeast 395 455 31,000  Level New York Center
Wed 10:15:07 AM 41.3903 -76.0306 37° Northeast 395 455 31,000  Level New York Center
Wed 10:16:05 AM 41.4814 -75.9519 33° Northeast 390 449 31,000  Level New York Center
Wed 10:18:15 AM 41.6822 -75.7758 33° Northeast 392 451 31,000  Level Boston Center
Wed 10:19:15 AM 41.7742 -75.6917 34° Northeast 397 457 31,000  Level Boston Center
Wed 10:20:15 AM 41.8683 -75.6100 33° Northeast 397 457 31,000  Level Boston Center
Wed 10:21:15 AM 41.9603 -75.5281 34° Northeast 397 457 31,000  Level Boston Center
Wed 10:22:15 AM 42.0542 -75.4406 35° Northeast 402 463 31,000  Level Boston Center
Wed 10:23:15 AM 42.1483 -75.3553 34° Northeast 402 463 31,000 -500 Level Boston Center
Wed 10:24:15 AM 42.2419 -75.2728 33° Northeast 402 463 30,000 -1,100 Descending Boston Center
Wed 10:25:15 AM 42.3336 -75.1925 33° Northeast 402 463 28,800 -1,050 Descending Boston Center
Wed 10:26:15 AM 42.4253 -75.1067 35° Northeast 402 463 27,900 -400 Descending Boston Center
Wed 10:27:15 AM 42.5128 -75.0258 34° Northeast 402 463 28,000 50 Climbing Boston Center
Wed 10:28:15 AM 42.6019 -74.9450 34° Northeast 392 451 28,000  Level Boston Center
Wed 10:29:15 AM 42.6914 -74.8667 33° Northeast 386 444 28,000  Level Boston Center
Wed 10:30:15 AM 42.7786 -74.7822 35° Northeast 386 444 28,000  Level Boston Center
Wed 10:31:15 AM 42.8678 -74.6978 35° Northeast 386 444 28,000  Level Boston Center
Wed 10:32:15 AM 42.9589 -74.6161 33° Northeast 386 444 28,000  Level Boston Center
Wed 10:33:15 AM 43.0481 -74.5283 36° Northeast 386 444 28,000  Level Boston Center
Wed 10:34:15 AM 43.1372 -74.4461 34° Northeast 386 444 28,000 -50 Level Boston Center
Wed 10:35:15 AM 43.2283 -74.3578 35° Northeast 391 450 27,900 -650 Descending Boston Center
Wed 10:36:15 AM 43.3044 -74.2861 34° Northeast 396 456 26,700 -1,850 Descending Boston Center
Wed 10:37:15 AM 43.4144 -74.1836 34° Northeast 401 461 24,200 -1,600 Descending Boston Center
Wed 10:38:15 AM 43.5139 -74.0864 35° Northeast 401 461 23,500 -1,350 Descending Boston Center
Wed 10:39:15 AM 43.6006 -74.0028 35° Northeast 396 456 21,500 -1,850 Descending Boston Center
Wed 10:40:15 AM 43.6786 -73.9300 34° Northeast 391 450 19,800 -1,800 Descending Boston Center
Wed 10:41:15 AM 43.7608 -73.8486 36° Northeast 376 433 17,900 -1,800 Descending Boston Center
Wed 10:42:15 AM 43.8411 -73.7700 35° Northeast 362 417 16,200 -1,900 Descending Boston Center
Wed 10:43:15 AM 43.9294 -73.6883 34° Northeast 352 405 14,100 -2,000 Descending Boston Center
Wed 10:44:15 AM 44.0094 -73.6150 33° Northeast 352 405 12,200 -1,750 Descending Boston Center
Wed 10:45:15 AM 44.0914 -73.5586 26° Northeast 334 384 10,600 -1,350 Descending Boston Center
Wed 10:46:15 AM 44.1647 -73.5139 24° Northeast 308 354 9,500 -900 Descending Boston Center
Wed 10:47:15 AM 44.2317 -73.4714 24° Northeast 278 320 8,800 -1,000 Descending Boston Center
Wed 10:48:15 AM 44.2947 -73.4292 26° Northeast 248 285 7,500 -1,350 Descending Boston Center
Wed 10:49:15 AM 44.3511 -73.3953 23° Northeast 242 278 6,100 -1,545 Descending Boston Center
Wed 10:50:27 AM 44.4222 -73.3556 22° Northeast 236 272 4,100 -955 Descending Boston Center
Wed 10:51:27 AM 44.4847 -73.3742 348° North 231 266 4,000 -400 Descending Boston Center
Wed 10:52:27 AM 44.5286 -73.3397 29° Northeast 177 204 3,300 -850 Descending Boston Center
Wed 10:53:27 AM 44.5333 -73.2731 84° East 153 176 2,300 -1,000 Descending Boston Center

Login

Don't have an account? Register now (free) for customized features, flight alerts, and more!